sensor_id;sensor_type;location;lat;lon;timestamp;P1;durP1;ratioP1;P2;durP2;ratioP2
9799;SDS011;4939;52.00085300;4.17406100;2023-09-30T00:00:25;7.35;;;1.88;;
9799;SDS011;4939;52.00085300;4.17406100;2023-09-30T00:02:51;8.95;;;2.10;;
9799;SDS011;4939;52.00085300;4.17406100;2023-09-30T00:05:17;6.43;;;1.70;;
9799;SDS011;4939;52.00085300;4.17406100;2023-09-30T00:07:45;7.40;;;2.03;;
9799;SDS011;4939;52.00085300;4.17406100;2023-09-30T00:10:11;7.15;;;1.85;;
9799;SDS011;4939;52.00085300;4.17406100;2023-09-30T00:12:37;7.00;;;2.00;;
9799;SDS011;4939;52.00085300;4.17406100;2023-09-30T00:15:03;7.90;;;2.35;;
9799;SDS011;4939;52.00085300;4.17406100;2023-09-30T00:17:29;7.30;;;2.20;;
9799;SDS011;4939;52.00085300;4.17406100;2023-09-30T00:19:55;7.70;;;2.05;;
9799;SDS011;4939;52.00085300;4.17406100;2023-09-30T00:22:21;7.80;;;2.53;;
9799;SDS011;4939;52.00085300;4.17406100;2023-09-30T00:24:47;8.27;;;2.03;;
9799;SDS011;4939;52.00085300;4.17406100;2023-09-30T00:27:13;6.22;;;2.00;;
9799;SDS011;4939;52.00085300;4.17406100;2023-09-30T00:29:39;7.07;;;2.00;;
9799;SDS011;4939;52.00085300;4.17406100;2023-09-30T00:32:05;4.43;;;1.73;;
9799;SDS011;4939;52.00085300;4.17406100;2023-09-30T00:34:36;9.60;;;2.65;;
9799;SDS011;4939;52.00085300;4.17406100;2023-09-30T00:37:02;10.68;;;2.40;;
9799;SDS011;4939;52.00085300;4.17406100;2023-09-30T00:39:28;6.63;;;2.60;;
9799;SDS011;4939;52.00085300;4.17406100;2023-09-30T00:41:56;9.60;;;2.30;;
9799;SDS011;4939;52.00085300;4.17406100;2023-09-30T00:44:24;9.02;;;2.42;;
9799;SDS011;4939;52.00085300;4.17406100;2023-09-30T00:46:51;8.70;;;2.30;;
9799;SDS011;4939;52.00085300;4.17406100;2023-09-30T00:49:17;5.68;;;2.10;;
9799;SDS011;4939;52.00085300;4.17406100;2023-09-30T00:51:44;7.40;;;2.13;;
9799;SDS011;4939;52.00085300;4.17406100;2023-09-30T00:54:11;6.65;;;2.33;;
9799;SDS011;4939;52.00085300;4.17406100;2023-09-30T00:56:39;9.13;;;2.55;;
9799;SDS011;4939;52.00085300;4.17406100;2023-09-30T00:59:11;7.78;;;2.70;;
9799;SDS011;4939;52.00085300;4.17406100;2023-09-30T01:01:41;5.93;;;2.15;;
9799;SDS011;4939;52.00085300;4.17406100;2023-09-30T01:04:08;10.27;;;2.45;;
9799;SDS011;4939;52.00085300;4.17406100;2023-09-30T01:06:34;6.75;;;2.20;;
9799;SDS011;4939;52.00085300;4.17406100;2023-09-30T01:09:00;5.80;;;2.13;;
9799;SDS011;4939;52.00085300;4.17406100;2023-09-30T01:11:26;5.97;;;2.47;;
9799;SDS011;4939;52.00085300;4.17406100;2023-09-30T01:13:51;8.43;;;2.55;;
9799;SDS011;4939;52.00085300;4.17406100;2023-09-30T01:16:17;11.43;;;2.50;;
9799;SDS011;4939;52.00085300;4.17406100;2023-09-30T01:18:43;11.23;;;2.50;;
9799;SDS011;4939;52.00085300;4.17406100;2023-09-30T01:21:09;6.57;;;2.65;;
9799;SDS011;4939;52.00085300;4.17406100;2023-09-30T01:23:35;6.65;;;2.70;;
9799;SDS011;4939;52.00085300;4.17406100;2023-09-30T01:26:04;6.38;;;2.40;;
9799;SDS011;4939;52.00085300;4.17406100;2023-09-30T01:28:34;11.20;;;2.40;;
9799;SDS011;4939;52.00085300;4.17406100;2023-09-30T01:31:00;6.95;;;2.58;;
9799;SDS011;4939;52.00085300;4.17406100;2023-09-30T01:33:26;9.48;;;2.70;;
9799;SDS011;4939;52.00085300;4.17406100;2023-09-30T01:35:52;7.15;;;2.78;;
9799;SDS011;4939;52.00085300;4.17406100;2023-09-30T01:38:18;10.00;;;3.10;;
9799;SDS011;4939;52.00085300;4.17406100;2023-09-30T01:40:45;8.00;;;2.55;;
9799;SDS011;4939;52.00085300;4.17406100;2023-09-30T01:43:12;8.93;;;2.65;;
9799;SDS011;4939;52.00085300;4.17406100;2023-09-30T01:45:41;10.48;;;3.40;;
9799;SDS011;4939;52.00085300;4.17406100;2023-09-30T01:48:08;9.93;;;3.00;;
9799;SDS011;4939;52.00085300;4.17406100;2023-09-30T01:50:39;9.38;;;2.65;;
9799;SDS011;4939;52.00085300;4.17406100;2023-09-30T01:53:06;8.68;;;3.03;;
9799;SDS011;4939;52.00085300;4.17406100;2023-09-30T01:55:35;9.60;;;3.00;;
9799;SDS011;4939;52.00085300;4.17406100;2023-09-30T01:58:02;9.73;;;2.47;;
9799;SDS011;4939;52.00085300;4.17406100;2023-09-30T02:00:28;7.65;;;2.67;;
9799;SDS011;4939;52.00085300;4.17406100;2023-09-30T02:02:54;14.45;;;3.10;;
9799;SDS011;4939;52.00085300;4.17406100;2023-09-30T02:05:21;8.10;;;2.50;;
9799;SDS011;4939;52.00085300;4.17406100;2023-09-30T02:07:48;9.15;;;2.60;;
9799;SDS011;4939;52.00085300;4.17406100;2023-09-30T02:10:14;7.10;;;2.33;;
9799;SDS011;4939;52.00085300;4.17406100;2023-09-30T02:12:40;7.43;;;2.50;;
9799;SDS011;4939;52.00085300;4.17406100;2023-09-30T02:15:06;7.45;;;3.08;;
9799;SDS011;4939;52.00085300;4.17406100;2023-09-30T02:17:32;7.13;;;2.50;;
9799;SDS011;4939;52.00085300;4.17406100;2023-09-30T02:19:59;9.00;;;2.60;;
9799;SDS011;4939;52.00085300;4.17406100;2023-09-30T02:22:27;10.32;;;3.25;;
9799;SDS011;4939;52.00085300;4.17406100;2023-09-30T02:24:53;6.80;;;3.20;;
9799;SDS011;4939;52.00085300;4.17406100;2023-09-30T02:27:19;7.90;;;3.22;;
9799;SDS011;4939;52.00085300;4.17406100;2023-09-30T02:29:45;12.52;;;3.30;;
9799;SDS011;4939;52.00085300;4.17406100;2023-09-30T02:32:12;10.40;;;3.40;;
9799;SDS011;4939;52.00085300;4.17406100;2023-09-30T02:34:39;9.98;;;3.72;;
9799;SDS011;4939;52.00085300;4.17406100;2023-09-30T02:37:04;12.43;;;4.32;;
9799;SDS011;4939;52.00085300;4.17406100;2023-09-30T02:39:30;11.25;;;4.30;;
9799;SDS011;4939;52.00085300;4.17406100;2023-09-30T02:41:56;11.18;;;4.20;;
9799;SDS011;4939;52.00085300;4.17406100;2023-09-30T02:44:22;11.40;;;4.30;;
9799;SDS011;4939;52.00085300;4.17406100;2023-09-30T02:46:47;11.50;;;4.95;;
9799;SDS011;4939;52.00085300;4.17406100;2023-09-30T02:49:13;12.60;;;4.93;;
9799;SDS011;4939;52.00085300;4.17406100;2023-09-30T02:51:39;14.93;;;4.95;;
9799;SDS011;4939;52.00085300;4.17406100;2023-09-30T02:54:04;17.35;;;5.28;;
9799;SDS011;4939;52.00085300;4.17406100;2023-09-30T02:56:30;16.33;;;5.38;;
9799;SDS011;4939;52.00085300;4.17406100;2023-09-30T02:58:56;13.10;;;4.93;;
9799;SDS011;4939;52.00085300;4.17406100;2023-09-30T03:01:24;13.88;;;5.10;;
9799;SDS011;4939;52.00085300;4.17406100;2023-09-30T03:03:51;14.05;;;6.03;;
9799;SDS011;4939;52.00085300;4.17406100;2023-09-30T03:06:17;15.05;;;5.78;;
9799;SDS011;4939;52.00085300;4.17406100;2023-09-30T03:08:43;19.67;;;6.00;;
9799;SDS011;4939;52.00085300;4.17406100;2023-09-30T03:11:09;13.27;;;4.90;;
9799;SDS011;4939;52.00085300;4.17406100;2023-09-30T03:13:35;19.38;;;5.50;;
9799;SDS011;4939;52.00085300;4.17406100;2023-09-30T03:16:02;11.90;;;5.20;;
9799;SDS011;4939;52.00085300;4.17406100;2023-09-30T03:18:28;13.95;;;4.97;;
9799;SDS011;4939;52.00085300;4.17406100;2023-09-30T03:20:58;14.23;;;5.35;;
9799;SDS011;4939;52.00085300;4.17406100;2023-09-30T03:23:33;17.17;;;5.45;;
9799;SDS011;4939;52.00085300;4.17406100;2023-09-30T03:26:00;16.55;;;6.47;;
9799;SDS011;4939;52.00085300;4.17406100;2023-09-30T03:28:26;23.70;;;6.60;;
9799;SDS011;4939;52.00085300;4.17406100;2023-09-30T03:30:53;15.90;;;6.15;;
9799;SDS011;4939;52.00085300;4.17406100;2023-09-30T03:33:18;20.88;;;6.40;;
9799;SDS011;4939;52.00085300;4.17406100;2023-09-30T03:35:44;20.35;;;7.13;;
9799;SDS011;4939;52.00085300;4.17406100;2023-09-30T03:38:11;17.88;;;6.25;;
9799;SDS011;4939;52.00085300;4.17406100;2023-09-30T03:40:39;16.15;;;5.97;;
9799;SDS011;4939;52.00085300;4.17406100;2023-09-30T03:43:05;22.50;;;6.95;;
9799;SDS011;4939;52.00085300;4.17406100;2023-09-30T03:45:31;21.27;;;6.30;;
9799;SDS011;4939;52.00085300;4.17406100;2023-09-30T03:48:01;21.60;;;6.63;;
9799;SDS011;4939;52.00085300;4.17406100;2023-09-30T03:50:27;19.77;;;7.00;;
9799;SDS011;4939;52.00085300;4.17406100;2023-09-30T03:53:01;18.05;;;6.43;;
9799;SDS011;4939;52.00085300;4.17406100;2023-09-30T03:55:30;20.92;;;6.88;;
9799;SDS011;4939;52.00085300;4.17406100;2023-09-30T03:57:57;19.02;;;6.90;;
9799;SDS011;4939;52.00085300;4.17406100;2023-09-30T04:00:23;22.85;;;7.00;;
9799;SDS011;4939;52.00085300;4.17406100;2023-09-30T04:02:50;22.35;;;7.00;;
9799;SDS011;4939;52.00085300;4.17406100;2023-09-30T04:05:24;18.33;;;6.93;;
9799;SDS011;4939;52.00085300;4.17406100;2023-09-30T04:08:01;18.83;;;6.93;;
9799;SDS011;4939;52.00085300;4.17406100;2023-09-30T04:10:28;20.50;;;7.43;;
9799;SDS011;4939;52.00085300;4.17406100;2023-09-30T04:12:55;19.50;;;6.63;;
9799;SDS011;4939;52.00085300;4.17406100;2023-09-30T04:15:21;23.63;;;7.47;;
9799;SDS011;4939;52.00085300;4.17406100;2023-09-30T04:17:47;26.60;;;7.82;;
9799;SDS011;4939;52.00085300;4.17406100;2023-09-30T04:20:13;25.52;;;7.88;;
9799;SDS011;4939;52.00085300;4.17406100;2023-09-30T04:25:14;19.42;;;7.15;;
9799;SDS011;4939;52.00085300;4.17406100;2023-09-30T04:27:41;19.55;;;7.38;;
9799;SDS011;4939;52.00085300;4.17406100;2023-09-30T04:30:08;18.48;;;6.57;;
9799;SDS011;4939;52.00085300;4.17406100;2023-09-30T04:32:36;23.42;;;7.55;;
9799;SDS011;4939;52.00085300;4.17406100;2023-09-30T04:35:03;22.90;;;7.90;;
9799;SDS011;4939;52.00085300;4.17406100;2023-09-30T04:37:29;21.77;;;7.65;;
9799;SDS011;4939;52.00085300;4.17406100;2023-09-30T04:39:55;25.33;;;8.60;;
9799;SDS011;4939;52.00085300;4.17406100;2023-09-30T04:42:20;29.63;;;8.55;;
9799;SDS011;4939;52.00085300;4.17406100;2023-09-30T04:44:46;27.75;;;8.65;;
9799;SDS011;4939;52.00085300;4.17406100;2023-09-30T04:47:12;22.65;;;8.35;;
9799;SDS011;4939;52.00085300;4.17406100;2023-09-30T04:49:37;24.63;;;8.75;;
9799;SDS011;4939;52.00085300;4.17406100;2023-09-30T04:52:03;24.17;;;8.50;;
9799;SDS011;4939;52.00085300;4.17406100;2023-09-30T04:54:32;26.88;;;8.43;;
9799;SDS011;4939;52.00085300;4.17406100;2023-09-30T04:57:00;32.05;;;8.85;;
9799;SDS011;4939;52.00085300;4.17406100;2023-09-30T04:59:27;27.35;;;8.98;;
9799;SDS011;4939;52.00085300;4.17406100;2023-09-30T05:01:53;28.48;;;9.70;;
9799;SDS011;4939;52.00085300;4.17406100;2023-09-30T05:04:19;28.50;;;9.25;;
9799;SDS011;4939;52.00085300;4.17406100;2023-09-30T05:06:45;33.80;;;9.63;;
9799;SDS011;4939;52.00085300;4.17406100;2023-09-30T05:09:11;27.55;;;9.85;;
9799;SDS011;4939;52.00085300;4.17406100;2023-09-30T05:11:38;27.35;;;10.68;;
9799;SDS011;4939;52.00085300;4.17406100;2023-09-30T05:14:04;33.90;;;11.65;;
9799;SDS011;4939;52.00085300;4.17406100;2023-09-30T05:16:30;33.70;;;10.88;;
9799;SDS011;4939;52.00085300;4.17406100;2023-09-30T05:18:56;34.10;;;11.35;;
9799;SDS011;4939;52.00085300;4.17406100;2023-09-30T05:21:22;28.67;;;10.48;;
9799;SDS011;4939;52.00085300;4.17406100;2023-09-30T05:23:48;30.90;;;11.02;;
9799;SDS011;4939;52.00085300;4.17406100;2023-09-30T05:26:14;29.73;;;10.48;;
9799;SDS011;4939;52.00085300;4.17406100;2023-09-30T05:28:41;31.65;;;11.07;;
9799;SDS011;4939;52.00085300;4.17406100;2023-09-30T05:31:08;31.25;;;11.35;;
9799;SDS011;4939;52.00085300;4.17406100;2023-09-30T05:33:34;34.53;;;11.95;;
9799;SDS011;4939;52.00085300;4.17406100;2023-09-30T05:36:01;34.53;;;12.30;;
9799;SDS011;4939;52.00085300;4.17406100;2023-09-30T05:38:28;29.90;;;11.07;;
9799;SDS011;4939;52.00085300;4.17406100;2023-09-30T05:40:56;29.58;;;10.77;;
9799;SDS011;4939;52.00085300;4.17406100;2023-09-30T05:43:24;35.00;;;12.55;;
9799;SDS011;4939;52.00085300;4.17406100;2023-09-30T05:45:50;33.50;;;11.85;;
9799;SDS011;4939;52.00085300;4.17406100;2023-09-30T05:48:20;37.05;;;12.13;;
9799;SDS011;4939;52.00085300;4.17406100;2023-09-30T05:50:46;39.67;;;13.73;;
9799;SDS011;4939;52.00085300;4.17406100;2023-09-30T05:53:12;42.33;;;14.70;;
9799;SDS011;4939;52.00085300;4.17406100;2023-09-30T05:55:39;35.63;;;14.18;;
9799;SDS011;4939;52.00085300;4.17406100;2023-09-30T05:58:12;39.15;;;15.02;;
9799;SDS011;4939;52.00085300;4.17406100;2023-09-30T06:00:39;39.83;;;13.65;;
9799;SDS011;4939;52.00085300;4.17406100;2023-09-30T06:03:07;35.28;;;14.65;;
9799;SDS011;4939;52.00085300;4.17406100;2023-09-30T06:05:33;34.03;;;14.30;;
9799;SDS011;4939;52.00085300;4.17406100;2023-09-30T06:08:03;33.95;;;13.85;;
9799;SDS011;4939;52.00085300;4.17406100;2023-09-30T06:10:29;31.83;;;13.05;;
9799;SDS011;4939;52.00085300;4.17406100;2023-09-30T06:12:56;32.53;;;13.35;;
9799;SDS011;4939;52.00085300;4.17406100;2023-09-30T06:15:23;33.70;;;13.57;;
9799;SDS011;4939;52.00085300;4.17406100;2023-09-30T06:17:54;33.50;;;13.68;;
9799;SDS011;4939;52.00085300;4.17406100;2023-09-30T06:20:20;32.25;;;13.45;;
9799;SDS011;4939;52.00085300;4.17406100;2023-09-30T06:22:48;31.83;;;12.52;;
9799;SDS011;4939;52.00085300;4.17406100;2023-09-30T06:25:17;30.92;;;12.15;;
9799;SDS011;4939;52.00085300;4.17406100;2023-09-30T06:27:43;27.85;;;12.40;;
9799;SDS011;4939;52.00085300;4.17406100;2023-09-30T06:30:10;28.63;;;11.55;;
9799;SDS011;4939;52.00085300;4.17406100;2023-09-30T06:32:38;33.03;;;12.07;;
9799;SDS011;4939;52.00085300;4.17406100;2023-09-30T06:35:05;28.63;;;11.88;;
9799;SDS011;4939;52.00085300;4.17406100;2023-09-30T06:37:32;27.70;;;11.55;;
9799;SDS011;4939;52.00085300;4.17406100;2023-09-30T06:39:58;30.70;;;11.40;;
9799;SDS011;4939;52.00085300;4.17406100;2023-09-30T06:42:24;30.33;;;11.93;;
9799;SDS011;4939;52.00085300;4.17406100;2023-09-30T06:44:50;28.58;;;11.45;;
9799;SDS011;4939;52.00085300;4.17406100;2023-09-30T06:47:15;27.98;;;11.25;;
9799;SDS011;4939;52.00085300;4.17406100;2023-09-30T06:49:41;22.20;;;10.75;;
9799;SDS011;4939;52.00085300;4.17406100;2023-09-30T06:52:07;24.92;;;9.98;;
9799;SDS011;4939;52.00085300;4.17406100;2023-09-30T06:54:32;29.33;;;9.77;;
9799;SDS011;4939;52.00085300;4.17406100;2023-09-30T06:56:58;30.20;;;10.63;;
9799;SDS011;4939;52.00085300;4.17406100;2023-09-30T06:59:24;24.90;;;10.23;;
9799;SDS011;4939;52.00085300;4.17406100;2023-09-30T07:01:50;28.80;;;10.32;;
9799;SDS011;4939;52.00085300;4.17406100;2023-09-30T07:04:16;24.02;;;9.13;;
9799;SDS011;4939;52.00085300;4.17406100;2023-09-30T07:06:42;23.65;;;9.02;;
9799;SDS011;4939;52.00085300;4.17406100;2023-09-30T07:09:08;19.95;;;7.78;;
9799;SDS011;4939;52.00085300;4.17406100;2023-09-30T07:11:35;19.45;;;7.97;;
9799;SDS011;4939;52.00085300;4.17406100;2023-09-30T07:14:01;18.55;;;7.97;;
9799;SDS011;4939;52.00085300;4.17406100;2023-09-30T07:16:27;19.95;;;8.05;;
9799;SDS011;4939;52.00085300;4.17406100;2023-09-30T07:18:53;18.08;;;7.78;;
9799;SDS011;4939;52.00085300;4.17406100;2023-09-30T07:21:19;19.10;;;7.82;;
9799;SDS011;4939;52.00085300;4.17406100;2023-09-30T07:23:45;22.85;;;8.45;;
9799;SDS011;4939;52.00085300;4.17406100;2023-09-30T07:26:10;18.38;;;7.72;;
9799;SDS011;4939;52.00085300;4.17406100;2023-09-30T07:28:36;18.65;;;7.40;;
9799;SDS011;4939;52.00085300;4.17406100;2023-09-30T07:31:03;24.42;;;8.00;;
9799;SDS011;4939;52.00085300;4.17406100;2023-09-30T07:33:29;20.65;;;8.20;;
9799;SDS011;4939;52.00085300;4.17406100;2023-09-30T07:35:55;17.58;;;7.38;;
9799;SDS011;4939;52.00085300;4.17406100;2023-09-30T07:38:21;18.08;;;7.22;;
9799;SDS011;4939;52.00085300;4.17406100;2023-09-30T07:40:48;19.85;;;7.85;;
9799;SDS011;4939;52.00085300;4.17406100;2023-09-30T07:43:14;22.25;;;7.40;;
9799;SDS011;4939;52.00085300;4.17406100;2023-09-30T07:45:42;16.55;;;6.55;;
9799;SDS011;4939;52.00085300;4.17406100;2023-09-30T07:48:08;19.05;;;7.45;;
9799;SDS011;4939;52.00085300;4.17406100;2023-09-30T07:50:35;20.77;;;6.90;;
9799;SDS011;4939;52.00085300;4.17406100;2023-09-30T07:53:02;19.17;;;7.07;;
9799;SDS011;4939;52.00085300;4.17406100;2023-09-30T07:55:27;25.77;;;8.05;;
9799;SDS011;4939;52.00085300;4.17406100;2023-09-30T07:57:53;23.65;;;6.70;;
9799;SDS011;4939;52.00085300;4.17406100;2023-09-30T08:00:19;17.05;;;7.07;;
9799;SDS011;4939;52.00085300;4.17406100;2023-09-30T08:02:46;19.05;;;7.35;;
9799;SDS011;4939;52.00085300;4.17406100;2023-09-30T08:05:12;14.48;;;6.10;;
9799;SDS011;4939;52.00085300;4.17406100;2023-09-30T08:07:38;14.02;;;5.85;;
9799;SDS011;4939;52.00085300;4.17406100;2023-09-30T08:10:04;18.50;;;5.90;;
9799;SDS011;4939;52.00085300;4.17406100;2023-09-30T08:12:32;10.82;;;4.95;;
9799;SDS011;4939;52.00085300;4.17406100;2023-09-30T08:14:58;15.13;;;5.50;;
9799;SDS011;4939;52.00085300;4.17406100;2023-09-30T08:17:24;13.65;;;4.40;;
9799;SDS011;4939;52.00085300;4.17406100;2023-09-30T08:19:50;12.10;;;4.00;;
9799;SDS011;4939;52.00085300;4.17406100;2023-09-30T08:22:16;11.75;;;4.03;;
9799;SDS011;4939;52.00085300;4.17406100;2023-09-30T08:24:42;13.25;;;4.07;;
9799;SDS011;4939;52.00085300;4.17406100;2023-09-30T08:27:09;15.60;;;3.88;;
9799;SDS011;4939;52.00085300;4.17406100;2023-09-30T08:29:35;12.25;;;4.18;;
9799;SDS011;4939;52.00085300;4.17406100;2023-09-30T08:32:03;13.43;;;4.35;;
9799;SDS011;4939;52.00085300;4.17406100;2023-09-30T08:34:29;15.30;;;4.20;;
9799;SDS011;4939;52.00085300;4.17406100;2023-09-30T08:36:56;9.55;;;3.38;;
9799;SDS011;4939;52.00085300;4.17406100;2023-09-30T08:39:22;11.85;;;3.63;;
9799;SDS011;4939;52.00085300;4.17406100;2023-09-30T08:41:49;11.48;;;3.50;;
9799;SDS011;4939;52.00085300;4.17406100;2023-09-30T08:44:15;12.45;;;3.42;;
9799;SDS011;4939;52.00085300;4.17406100;2023-09-30T08:46:42;13.88;;;3.55;;
9799;SDS011;4939;52.00085300;4.17406100;2023-09-30T08:49:09;10.05;;;3.42;;
9799;SDS011;4939;52.00085300;4.17406100;2023-09-30T08:51:36;10.90;;;3.50;;
9799;SDS011;4939;52.00085300;4.17406100;2023-09-30T08:54:03;10.90;;;3.35;;
9799;SDS011;4939;52.00085300;4.17406100;2023-09-30T08:56:31;13.90;;;3.47;;
9799;SDS011;4939;52.00085300;4.17406100;2023-09-30T08:58:58;11.20;;;3.38;;
9799;SDS011;4939;52.00085300;4.17406100;2023-09-30T09:01:29;11.50;;;3.53;;
9799;SDS011;4939;52.00085300;4.17406100;2023-09-30T09:03:56;12.82;;;3.58;;
9799;SDS011;4939;52.00085300;4.17406100;2023-09-30T09:06:25;12.57;;;3.35;;
9799;SDS011;4939;52.00085300;4.17406100;2023-09-30T09:08:52;10.88;;;3.42;;
9799;SDS011;4939;52.00085300;4.17406100;2023-09-30T09:11:18;14.07;;;3.30;;
9799;SDS011;4939;52.00085300;4.17406100;2023-09-30T09:13:47;9.13;;;3.08;;
9799;SDS011;4939;52.00085300;4.17406100;2023-09-30T09:16:22;10.30;;;3.45;;
9799;SDS011;4939;52.00085300;4.17406100;2023-09-30T09:18:49;10.45;;;3.13;;
9799;SDS011;4939;52.00085300;4.17406100;2023-09-30T09:21:16;10.23;;;3.50;;
9799;SDS011;4939;52.00085300;4.17406100;2023-09-30T09:23:43;12.05;;;3.83;;
9799;SDS011;4939;52.00085300;4.17406100;2023-09-30T09:26:24;9.82;;;3.30;;
9799;SDS011;4939;52.00085300;4.17406100;2023-09-30T09:31:23;8.75;;;3.00;;
9799;SDS011;4939;52.00085300;4.17406100;2023-09-30T09:33:50;11.20;;;3.42;;
9799;SDS011;4939;52.00085300;4.17406100;2023-09-30T09:36:17;13.80;;;2.83;;
9799;SDS011;4939;52.00085300;4.17406100;2023-09-30T09:38:50;10.68;;;2.28;;
9799;SDS011;4939;52.00085300;4.17406100;2023-09-30T09:41:20;10.77;;;2.60;;
9799;SDS011;4939;52.00085300;4.17406100;2023-09-30T09:43:49;8.15;;;2.20;;
9799;SDS011;4939;52.00085300;4.17406100;2023-09-30T09:46:16;8.57;;;2.00;;
9799;SDS011;4939;52.00085300;4.17406100;2023-09-30T09:48:42;12.48;;;2.28;;
9799;SDS011;4939;52.00085300;4.17406100;2023-09-30T09:51:13;10.93;;;2.40;;
9799;SDS011;4939;52.00085300;4.17406100;2023-09-30T09:53:40;6.97;;;1.88;;
9799;SDS011;4939;52.00085300;4.17406100;2023-09-30T09:56:10;8.77;;;1.90;;
9799;SDS011;4939;52.00085300;4.17406100;2023-09-30T09:58:37;11.43;;;2.00;;
9799;SDS011;4939;52.00085300;4.17406100;2023-09-30T10:01:06;6.78;;;1.80;;
9799;SDS011;4939;52.00085300;4.17406100;2023-09-30T10:03:32;10.25;;;1.95;;
9799;SDS011;4939;52.00085300;4.17406100;2023-09-30T10:05:58;7.90;;;1.75;;
9799;SDS011;4939;52.00085300;4.17406100;2023-09-30T10:08:32;6.50;;;1.50;;
9799;SDS011;4939;52.00085300;4.17406100;2023-09-30T10:11:02;6.05;;;1.60;;
9799;SDS011;4939;52.00085300;4.17406100;2023-09-30T10:21:37;9.57;;;1.60;;
9799;SDS011;4939;52.00085300;4.17406100;2023-09-30T10:24:27;5.05;;;1.30;;
9799;SDS011;4939;52.00085300;4.17406100;2023-09-30T10:40:50;6.55;;;1.65;;
9799;SDS011;4939;52.00085300;4.17406100;2023-09-30T10:43:29;7.18;;;1.70;;
9799;SDS011;4939;52.00085300;4.17406100;2023-09-30T10:45:56;10.65;;;1.95;;
9799;SDS011;4939;52.00085300;4.17406100;2023-09-30T10:51:00;9.50;;;1.85;;
9799;SDS011;4939;52.00085300;4.17406100;2023-09-30T10:53:39;10.00;;;1.90;;
9799;SDS011;4939;52.00085300;4.17406100;2023-09-30T10:56:07;11.27;;;2.00;;
9799;SDS011;4939;52.00085300;4.17406100;2023-09-30T11:01:05;6.68;;;1.67;;
9799;SDS011;4939;52.00085300;4.17406100;2023-09-30T11:03:31;7.65;;;2.00;;
9799;SDS011;4939;52.00085300;4.17406100;2023-09-30T11:05:56;7.60;;;1.75;;
9799;SDS011;4939;52.00085300;4.17406100;2023-09-30T11:08:22;10.75;;;3.08;;
9799;SDS011;4939;52.00085300;4.17406100;2023-09-30T11:10:50;16.15;;;7.25;;
9799;SDS011;4939;52.00085300;4.17406100;2023-09-30T11:13:19;19.40;;;12.20;;
9799;SDS011;4939;52.00085300;4.17406100;2023-09-30T11:15:46;20.30;;;10.23;;
9799;SDS011;4939;52.00085300;4.17406100;2023-09-30T11:18:16;6.63;;;1.75;;
9799;SDS011;4939;52.00085300;4.17406100;2023-09-30T11:20:43;7.15;;;1.88;;
9799;SDS011;4939;52.00085300;4.17406100;2023-09-30T11:23:09;9.23;;;1.95;;
9799;SDS011;4939;52.00085300;4.17406100;2023-09-30T11:25:36;6.07;;;1.80;;
9799;SDS011;4939;52.00085300;4.17406100;2023-09-30T11:28:16;6.38;;;1.70;;
9799;SDS011;4939;52.00085300;4.17406100;2023-09-30T11:30:56;7.00;;;1.50;;
9799;SDS011;4939;52.00085300;4.17406100;2023-09-30T11:33:22;8.77;;;1.85;;
9799;SDS011;4939;52.00085300;4.17406100;2023-09-30T11:35:56;8.00;;;1.90;;
9799;SDS011;4939;52.00085300;4.17406100;2023-09-30T11:38:29;8.80;;;1.92;;
9799;SDS011;4939;52.00085300;4.17406100;2023-09-30T11:41:05;8.55;;;2.00;;
9799;SDS011;4939;52.00085300;4.17406100;2023-09-30T11:43:34;8.40;;;1.83;;
9799;SDS011;4939;52.00085300;4.17406100;2023-09-30T11:46:07;8.68;;;2.05;;
9799;SDS011;4939;52.00085300;4.17406100;2023-09-30T11:48:37;8.93;;;2.50;;
9799;SDS011;4939;52.00085300;4.17406100;2023-09-30T11:51:03;10.10;;;2.00;;
9799;SDS011;4939;52.00085300;4.17406100;2023-09-30T11:53:30;7.47;;;1.75;;
9799;SDS011;4939;52.00085300;4.17406100;2023-09-30T11:56:00;10.48;;;1.92;;
9799;SDS011;4939;52.00085300;4.17406100;2023-09-30T11:58:28;8.38;;;2.22;;
9799;SDS011;4939;52.00085300;4.17406100;2023-09-30T12:01:00;6.10;;;2.17;;
9799;SDS011;4939;52.00085300;4.17406100;2023-09-30T12:03:26;7.70;;;1.88;;
9799;SDS011;4939;52.00085300;4.17406100;2023-09-30T12:05:55;11.18;;;2.00;;
9799;SDS011;4939;52.00085300;4.17406100;2023-09-30T12:08:21;5.72;;;1.58;;
9799;SDS011;4939;52.00085300;4.17406100;2023-09-30T12:10:48;5.75;;;1.40;;
9799;SDS011;4939;52.00085300;4.17406100;2023-09-30T12:13:14;6.32;;;1.50;;
9799;SDS011;4939;52.00085300;4.17406100;2023-09-30T12:15:42;7.60;;;1.60;;
9799;SDS011;4939;52.00085300;4.17406100;2023-09-30T12:18:09;3.95;;;1.48;;
9799;SDS011;4939;52.00085300;4.17406100;2023-09-30T12:20:36;6.90;;;1.45;;
9799;SDS011;4939;52.00085300;4.17406100;2023-09-30T12:23:01;7.65;;;1.33;;
9799;SDS011;4939;52.00085300;4.17406100;2023-09-30T12:25:30;7.97;;;1.85;;
9799;SDS011;4939;52.00085300;4.17406100;2023-09-30T12:27:56;6.68;;;1.60;;
9799;SDS011;4939;52.00085300;4.17406100;2023-09-30T12:30:21;4.88;;;1.20;;
9799;SDS011;4939;52.00085300;4.17406100;2023-09-30T12:32:47;8.68;;;1.80;;
9799;SDS011;4939;52.00085300;4.17406100;2023-09-30T12:35:13;8.57;;;1.80;;
9799;SDS011;4939;52.00085300;4.17406100;2023-09-30T12:37:38;7.65;;;1.38;;
9799;SDS011;4939;52.00085300;4.17406100;2023-09-30T12:40:05;11.85;;;1.35;;
9799;SDS011;4939;52.00085300;4.17406100;2023-09-30T12:42:36;5.30;;;1.17;;
9799;SDS011;4939;52.00085300;4.17406100;2023-09-30T12:45:02;7.68;;;1.48;;
9799;SDS011;4939;52.00085300;4.17406100;2023-09-30T12:47:30;4.95;;;1.30;;
9799;SDS011;4939;52.00085300;4.17406100;2023-09-30T12:49:56;3.92;;;1.10;;
9799;SDS011;4939;52.00085300;4.17406100;2023-09-30T12:52:22;7.43;;;1.60;;
9799;SDS011;4939;52.00085300;4.17406100;2023-09-30T12:54:49;7.00;;;1.73;;
9799;SDS011;4939;52.00085300;4.17406100;2023-09-30T12:57:15;9.88;;;1.73;;
9799;SDS011;4939;52.00085300;4.17406100;2023-09-30T12:59:45;5.78;;;1.50;;
9799;SDS011;4939;52.00085300;4.17406100;2023-09-30T13:02:12;5.70;;;1.10;;
9799;SDS011;4939;52.00085300;4.17406100;2023-09-30T13:04:38;7.35;;;2.20;;
9799;SDS011;4939;52.00085300;4.17406100;2023-09-30T13:07:08;5.70;;;1.30;;
9799;SDS011;4939;52.00085300;4.17406100;2023-09-30T13:09:35;8.65;;;2.10;;
9799;SDS011;4939;52.00085300;4.17406100;2023-09-30T13:12:02;5.82;;;1.30;;
9799;SDS011;4939;52.00085300;4.17406100;2023-09-30T13:14:28;4.90;;;1.15;;
9799;SDS011;4939;52.00085300;4.17406100;2023-09-30T13:16:54;5.28;;;1.10;;
9799;SDS011;4939;52.00085300;4.17406100;2023-09-30T13:19:20;7.30;;;1.63;;
9799;SDS011;4939;52.00085300;4.17406100;2023-09-30T13:21:46;6.05;;;1.20;;
9799;SDS011;4939;52.00085300;4.17406100;2023-09-30T13:24:13;11.85;;;5.63;;
9799;SDS011;4939;52.00085300;4.17406100;2023-09-30T13:26:39;64.90;;;49.67;;
9799;SDS011;4939;52.00085300;4.17406100;2023-09-30T13:29:05;11.00;;;3.33;;
9799;SDS011;4939;52.00085300;4.17406100;2023-09-30T13:31:31;17.65;;;10.55;;
9799;SDS011;4939;52.00085300;4.17406100;2023-09-30T13:33:56;4.22;;;1.42;;